createdAt,value
2022-08-28T00:01:11.143Z,11.88
2022-08-28T00:03:39.554Z,13.65
2022-08-28T00:06:08.951Z,14.07
2022-08-28T00:08:38.617Z,12.00
2022-08-28T00:11:06.892Z,12.18
2022-08-28T00:13:35.759Z,12.38
2022-08-28T00:16:05.184Z,11.27
2022-08-28T00:18:33.779Z,14.82
2022-08-28T00:21:03.038Z,14.00
2022-08-28T00:23:42.217Z,14.35
2022-08-28T00:26:34.576Z,14.27
2022-08-28T00:29:04.559Z,13.75
2022-08-28T00:31:33.360Z,12.98
2022-08-28T00:34:03.038Z,12.35
2022-08-28T00:36:31.444Z,12.50
2022-08-28T00:39:00.403Z,10.43
2022-08-28T00:41:32.465Z,11.98
2022-08-28T00:44:13.582Z,12.45
2022-08-28T00:46:45.666Z,11.52
2022-08-28T00:49:18.733Z,12.40
2022-08-28T00:52:12.149Z,13.65
2022-08-28T00:54:58.387Z,12.35
2022-08-28T00:57:34.843Z,13.85
2022-08-28T01:00:06.874Z,13.05
2022-08-28T01:02:35.125Z,14.00
2022-08-28T01:05:04.198Z,15.13
2022-08-28T01:07:32.550Z,15.65
2022-08-28T01:10:01.617Z,13.88
2022-08-28T01:12:34.403Z,14.60
2022-08-28T01:15:14.046Z,15.07
2022-08-28T01:17:49.222Z,14.32
2022-08-28T01:20:22.825Z,14.80
2022-08-28T01:23:02.829Z,13.13
2022-08-28T01:25:37.237Z,13.52
2022-08-28T01:28:13.827Z,14.45
2022-08-28T01:30:46.323Z,12.85
2022-08-28T01:33:16.246Z,12.73
2022-08-28T01:35:48.573Z,15.07
2022-08-28T01:38:20.094Z,13.73
2022-08-28T01:40:59.747Z,13.43
2022-08-28T01:43:28.980Z,13.40
2022-08-28T01:46:02.543Z,13.85
2022-08-28T01:48:34.984Z,13.35
2022-08-28T01:51:04.292Z,13.73
2022-08-28T01:53:33.857Z,12.45
2022-08-28T01:56:09.023Z,13.68
2022-08-28T01:58:38.699Z,14.43
2022-08-28T02:01:11.867Z,12.80
2022-08-28T02:03:43.435Z,14.55
2022-08-28T02:06:13.504Z,14.60
2022-08-28T02:08:42.043Z,15.65
2022-08-28T02:11:12.794Z,13.48
2022-08-28T02:13:42.256Z,12.90
2022-08-28T02:16:12.695Z,13.80
2022-08-28T02:18:41.325Z,13.95
2022-08-28T02:21:11.302Z,13.02
2022-08-28T02:23:43.763Z,12.25
2022-08-28T02:26:15.620Z,16.80
2022-08-28T02:28:44.833Z,14.68
2022-08-28T02:31:13.612Z,13.90
2022-08-28T02:33:45.769Z,11.57
2022-08-28T02:36:17.292Z,11.75
2022-08-28T02:38:47.733Z,12.88
2022-08-28T02:41:17.279Z,12.45
2022-08-28T02:43:45.945Z,13.70
2022-08-28T02:46:14.768Z,12.32
2022-08-28T02:48:43.222Z,11.50
2022-08-28T02:51:16.079Z,11.77
2022-08-28T02:53:44.448Z,11.32
2022-08-28T02:56:13.526Z,12.07
2022-08-28T02:58:43.033Z,11.13
2022-08-28T03:01:15.674Z,11.15
2022-08-28T03:03:44.272Z,13.73
2022-08-28T03:06:14.256Z,14.77
2022-08-28T03:08:44.814Z,12.18
2022-08-28T03:11:13.939Z,12.30
2022-08-28T03:13:43.764Z,11.80
2022-08-28T03:16:12.329Z,12.05
2022-08-28T03:18:41.603Z,13.18
2022-08-28T03:21:11.827Z,11.05
2022-08-28T03:23:39.719Z,11.32
2022-08-28T03:26:12.844Z,10.68
2022-08-28T03:28:46.661Z,10.00
2022-08-28T03:31:19.321Z,11.25
2022-08-28T03:33:49.408Z,10.63
2022-08-28T03:36:22.404Z,12.52
2022-08-28T03:38:52.067Z,12.73
2022-08-28T03:41:24.246Z,12.18
2022-08-28T03:43:54.352Z,12.07
2022-08-28T03:46:24.734Z,10.68
2022-08-28T03:48:55.838Z,9.98
2022-08-28T03:51:29.706Z,13.98
2022-08-28T03:53:59.121Z,17.45
2022-08-28T03:56:31.428Z,14.25
2022-08-28T03:59:04.350Z,13.88
2022-08-28T04:01:34.716Z,18.08
2022-08-28T04:04:03.429Z,20.98
2022-08-28T04:06:31.863Z,18.55
2022-08-28T04:09:00.631Z,17.98
2022-08-28T04:11:29.075Z,16.25
2022-08-28T04:13:58.623Z,19.00
2022-08-28T04:16:29.108Z,17.40
2022-08-28T04:18:59.295Z,16.10
2022-08-28T04:21:29.389Z,16.27
2022-08-28T04:23:57.663Z,13.52
2022-08-28T04:26:29.248Z,15.00
2022-08-28T04:28:58.334Z,14.02
2022-08-28T04:31:32.322Z,14.25
2022-08-28T04:34:02.875Z,14.88
2022-08-28T04:36:33.926Z,15.00
2022-08-28T04:39:05.312Z,12.88
2022-08-28T04:41:34.641Z,15.23
2022-08-28T04:44:03.076Z,12.73
2022-08-28T04:46:33.085Z,13.20
2022-08-28T04:49:01.952Z,11.70
2022-08-28T04:51:30.375Z,13.25
2022-08-28T04:53:59.598Z,12.65
2022-08-28T04:56:27.906Z,12.43
2022-08-28T04:58:56.290Z,14.70
2022-08-28T05:01:25.730Z,13.77
2022-08-28T05:03:59.084Z,14.80
2022-08-28T05:06:30.028Z,15.20
2022-08-28T05:09:00.984Z,15.32
2022-08-28T05:11:34.088Z,12.98
2022-08-28T05:14:05.727Z,13.35
2022-08-28T05:16:35.568Z,14.57
2022-08-28T05:19:05.282Z,13.60
2022-08-28T05:21:33.828Z,15.13
2022-08-28T05:24:02.227Z,13.73
2022-08-28T05:26:31.058Z,15.18
2022-08-28T05:29:00.738Z,14.63
2022-08-28T05:31:32.315Z,13.48
2022-08-28T05:34:01.981Z,13.32
2022-08-28T05:36:36.686Z,12.75
2022-08-28T05:39:10.162Z,15.95
2022-08-28T05:41:43.679Z,13.50
2022-08-28T05:44:14.813Z,15.90
2022-08-28T05:46:48.202Z,14.60
2022-08-28T05:49:19.586Z,13.63
2022-08-28T05:51:50.224Z,13.85
2022-08-28T05:54:19.850Z,16.23
2022-08-28T05:56:48.080Z,15.25
2022-08-28T05:59:18.441Z,15.73
2022-08-28T06:01:50.266Z,16.30
2022-08-28T06:04:23.138Z,16.70
2022-08-28T06:06:52.856Z,16.88
2022-08-28T06:09:29.066Z,16.35
2022-08-28T06:12:00.938Z,14.18
2022-08-28T06:14:31.881Z,13.85
2022-08-28T06:17:01.794Z,17.15
2022-08-28T06:19:33.144Z,16.77
2022-08-28T06:22:07.569Z,18.27
2022-08-28T06:24:36.178Z,16.83
2022-08-28T06:27:05.911Z,16.52
2022-08-28T06:29:34.469Z,16.23
2022-08-28T06:32:05.391Z,17.48
2022-08-28T06:34:34.182Z,15.98
2022-08-28T06:37:03.781Z,17.02
2022-08-28T06:39:32.722Z,16.88
2022-08-28T06:42:01.960Z,17.65
2022-08-28T06:44:32.088Z,15.68
2022-08-28T06:47:01.028Z,14.75
2022-08-28T06:49:29.496Z,15.75
2022-08-28T06:51:57.936Z,15.40
2022-08-28T06:54:27.721Z,15.85
2022-08-28T06:56:56.224Z,16.13
2022-08-28T06:59:24.417Z,16.00
2022-08-28T07:01:56.005Z,15.88
2022-08-28T07:04:24.320Z,15.93
2022-08-28T07:06:54.856Z,15.50
2022-08-28T07:09:24.975Z,14.68
2022-08-28T07:11:54.885Z,15.40
2022-08-28T07:14:25.720Z,15.35
2022-08-28T07:16:56.055Z,15.35
2022-08-28T07:19:24.120Z,14.75
2022-08-28T07:21:52.734Z,14.95
2022-08-28T07:24:21.079Z,12.23
2022-08-28T07:26:49.948Z,12.55
2022-08-28T07:29:20.905Z,12.68
2022-08-28T07:31:52.830Z,12.55
2022-08-28T07:34:26.894Z,12.82
2022-08-28T07:36:56.366Z,12.93
2022-08-28T07:39:25.613Z,10.98
2022-08-28T07:41:53.704Z,12.25
2022-08-28T07:44:41.450Z,11.77
2022-08-28T07:47:11.571Z,11.32
2022-08-28T07:49:42.504Z,11.57
2022-08-28T07:52:12.417Z,12.38
2022-08-28T07:54:41.429Z,10.77
2022-08-28T07:57:11.141Z,10.60
2022-08-28T07:59:42.906Z,11.70
2022-08-28T08:02:11.801Z,9.10
2022-08-28T08:04:40.654Z,10.77
2022-08-28T08:07:09.563Z,12.68
2022-08-28T08:09:40.689Z,11.35
2022-08-28T08:12:10.634Z,9.93
2022-08-28T08:14:42.013Z,9.55
2022-08-28T08:17:12.677Z,10.20
2022-08-28T08:19:41.300Z,9.15
2022-08-28T08:22:09.457Z,9.02
2022-08-28T08:24:38.283Z,9.10
2022-08-28T08:27:07.097Z,9.88
2022-08-28T08:29:38.796Z,9.35
2022-08-28T08:32:12.540Z,10.15
2022-08-28T08:34:45.769Z,8.82
2022-08-28T08:37:15.392Z,8.80
2022-08-28T08:39:45.121Z,9.68
2022-08-28T08:42:24.127Z,9.00
2022-08-28T08:44:55.301Z,8.82
2022-08-28T08:47:39.156Z,8.38
2022-08-28T08:50:16.392Z,9.25
2022-08-28T08:53:09.777Z,8.82
2022-08-28T08:55:45.610Z,10.00
2022-08-28T08:58:22.802Z,8.98
2022-08-28T09:01:02.497Z,11.88
2022-08-28T09:03:53.796Z,9.05
2022-08-28T09:06:42.487Z,11.80
2022-08-28T09:09:26.586Z,7.90
2022-08-28T09:12:00.697Z,8.25
2022-08-28T09:14:39.183Z,9.68
2022-08-28T09:17:09.805Z,9.60
2022-08-28T09:19:39.760Z,7.78
2022-08-28T09:22:07.993Z,10.55
2022-08-28T09:24:41.348Z,8.57
2022-08-28T09:27:26.570Z,7.50
2022-08-28T09:29:59.663Z,7.97
2022-08-28T09:32:38.696Z,14.27
2022-08-28T09:35:16.709Z,9.30
2022-08-28T09:37:45.753Z,9.63
2022-08-28T09:40:24.470Z,11.90
2022-08-28T09:43:23.301Z,9.10
2022-08-28T09:46:01.750Z,10.10
2022-08-28T09:48:37.557Z,7.10
2022-08-28T09:51:10.980Z,8.55
2022-08-28T09:53:57.616Z,9.77
2022-08-28T09:56:33.055Z,6.95
2022-08-28T09:59:06.827Z,7.53
2022-08-28T10:01:55.961Z,8.68
2022-08-28T10:04:42.470Z,7.20
2022-08-28T10:07:24.940Z,7.50
2022-08-28T10:10:18.217Z,7.97
2022-08-28T10:13:03.642Z,8.23
2022-08-28T10:15:49.545Z,8.80
2022-08-28T10:18:41.224Z,6.25
2022-08-28T10:21:21.466Z,6.57
2022-08-28T10:24:27.740Z,7.35
2022-08-28T10:27:12.676Z,6.43
2022-08-28T10:30:01.373Z,8.05
2022-08-28T10:32:59.963Z,7.07
2022-08-28T10:35:41.799Z,7.10
2022-08-28T10:38:16.453Z,7.70
2022-08-28T10:40:59.364Z,6.70
2022-08-28T10:43:35.290Z,7.30
2022-08-28T10:46:10.827Z,7.57
2022-08-28T10:48:48.786Z,7.28
2022-08-28T10:51:35.244Z,6.47
2022-08-28T10:54:17.691Z,7.68
2022-08-28T10:56:56.635Z,6.68
2022-08-28T10:59:27.405Z,6.47
2022-08-28T11:01:56.765Z,7.38
2022-08-28T11:04:29.306Z,6.65
2022-08-28T11:07:04.601Z,6.10
2022-08-28T11:09:37.681Z,7.70
2022-08-28T11:12:30.120Z,5.22
2022-08-28T11:14:58.800Z,6.50
2022-08-28T11:17:42.596Z,6.25
2022-08-28T11:20:18.775Z,7.82
2022-08-28T11:22:53.992Z,7.50
2022-08-28T11:25:32.765Z,5.45
2022-08-28T11:28:19.045Z,6.57
2022-08-28T11:30:51.232Z,4.93
2022-08-28T11:33:43.113Z,7.35
2022-08-28T11:36:13.749Z,7.88
2022-08-28T11:39:05.180Z,4.47
2022-08-28T11:41:36.873Z,8.95
2022-08-28T11:44:41.464Z,4.97
2022-08-28T11:47:49.122Z,6.20
2022-08-28T11:50:27.396Z,4.95
2022-08-28T11:53:39.447Z,4.47
2022-08-28T11:56:41.399Z,4.22
2022-08-28T11:59:45.858Z,7.32
2022-08-28T12:03:10.207Z,4.90
2022-08-28T12:05:47.441Z,4.30
2022-08-28T12:09:04.561Z,5.78
2022-08-28T12:11:59.278Z,4.93
2022-08-28T12:15:11.414Z,4.30
2022-08-28T12:17:53.246Z,4.80
2022-08-28T12:21:00.971Z,5.47
2022-08-28T12:23:42.619Z,6.45
2022-08-28T12:26:23.894Z,5.03
2022-08-28T12:28:57.901Z,5.68
2022-08-28T12:32:14.415Z,4.47
2022-08-28T12:34:51.231Z,5.45
2022-08-28T12:37:39.574Z,5.65
2022-08-28T12:40:26.625Z,5.68
2022-08-28T12:43:00.473Z,4.00
2022-08-28T12:45:37.586Z,4.78
2022-08-28T12:48:19.037Z,5.03
2022-08-28T12:50:47.432Z,4.47
2022-08-28T12:53:19.364Z,5.95
2022-08-28T12:55:48.425Z,3.85
2022-08-28T12:58:31.622Z,5.30
2022-08-28T13:01:04.054Z,5.60
2022-08-28T13:03:34.236Z,6.03
2022-08-28T13:06:09.656Z,7.43
2022-08-28T13:08:38.932Z,4.10
2022-08-28T13:11:08.529Z,4.60
2022-08-28T13:13:41.459Z,3.60
2022-08-28T13:16:13.528Z,4.18
2022-08-28T13:18:56.428Z,3.60
2022-08-28T13:21:34.970Z,3.53
2022-08-28T13:24:37.305Z,4.38
2022-08-28T13:27:21.090Z,3.93
2022-08-28T13:30:23.867Z,3.90
2022-08-28T13:32:59.538Z,4.33
2022-08-28T13:35:41.292Z,5.68
2022-08-28T13:38:13.739Z,3.55
2022-08-28T13:40:57.865Z,4.25
2022-08-28T13:43:30.990Z,6.22
2022-08-28T13:46:00.255Z,3.95
2022-08-28T13:48:29.220Z,3.90
2022-08-28T13:51:10.371Z,3.50
2022-08-28T13:53:40.157Z,4.30
2022-08-28T13:56:09.308Z,3.47
2022-08-28T13:58:38.885Z,4.07
2022-08-28T14:01:07.932Z,4.90
2022-08-28T14:03:39.125Z,3.72
2022-08-28T14:06:13.547Z,3.50
2022-08-28T14:08:44.397Z,4.03
2022-08-28T14:11:16.072Z,3.15
2022-08-28T14:13:47.046Z,4.32
2022-08-28T14:16:26.173Z,4.03
2022-08-28T14:18:54.724Z,4.35
2022-08-28T14:21:25.559Z,3.38
2022-08-28T14:23:53.726Z,4.40
2022-08-28T14:26:22.351Z,3.75
2022-08-28T14:28:50.767Z,3.13
2022-08-28T14:31:19.045Z,3.25
2022-08-28T14:33:47.816Z,4.55
2022-08-28T14:36:19.044Z,4.18
2022-08-28T14:38:53.884Z,4.43
2022-08-28T14:41:23.039Z,3.33
2022-08-28T14:43:52.351Z,4.88
2022-08-28T14:46:24.156Z,3.22
2022-08-28T14:48:53.580Z,3.92
2022-08-28T14:51:22.050Z,3.17
2022-08-28T14:53:51.832Z,3.53
2022-08-28T14:56:20.819Z,3.10
2022-08-28T14:58:49.944Z,3.92
2022-08-28T15:01:30.215Z,3.38
2022-08-28T15:04:13.371Z,5.82
2022-08-28T15:06:43.139Z,3.55
2022-08-28T15:09:14.532Z,3.35
2022-08-28T15:11:44.528Z,3.10
2022-08-28T15:14:14.342Z,3.60
2022-08-28T15:16:46.330Z,5.32
2022-08-28T15:19:18.363Z,4.85
2022-08-28T15:21:51.093Z,3.33
2022-08-28T15:24:25.151Z,4.00
2022-08-28T15:26:53.435Z,4.53
2022-08-28T15:29:22.363Z,4.18
2022-08-28T15:31:53.098Z,3.17
2022-08-28T15:34:25.308Z,3.45
2022-08-28T15:36:55.996Z,4.32
2022-08-28T15:39:45.215Z,6.57
2022-08-28T15:42:14.242Z,5.10
2022-08-28T15:44:43.043Z,5.00
2022-08-28T15:47:12.571Z,3.95
2022-08-28T15:49:48.828Z,4.20
2022-08-28T15:52:21.049Z,4.05
2022-08-28T15:54:50.669Z,5.28
2022-08-28T15:57:20.216Z,3.75
2022-08-28T15:59:50.782Z,3.60
2022-08-28T16:02:21.037Z,4.00
2022-08-28T16:04:51.167Z,4.13
2022-08-28T16:07:22.064Z,3.60
2022-08-28T16:09:52.483Z,4.75
2022-08-28T16:12:20.657Z,3.88
2022-08-28T16:14:50.315Z,7.93
2022-08-28T16:17:18.653Z,4.40
2022-08-28T16:19:47.218Z,4.43
2022-08-28T16:22:16.609Z,4.55
2022-08-28T16:24:45.885Z,3.92
2022-08-28T16:27:16.516Z,3.97
2022-08-28T16:30:05.903Z,4.30
2022-08-28T16:32:34.333Z,5.07
2022-08-28T16:35:05.497Z,3.60
2022-08-28T16:37:39.842Z,6.80
2022-08-28T16:40:11.051Z,5.25
2022-08-28T16:42:41.470Z,3.80
2022-08-28T16:45:12.713Z,3.88
2022-08-28T16:47:40.873Z,3.83
2022-08-28T16:50:13.576Z,5.15
2022-08-28T16:52:41.937Z,3.85
2022-08-28T16:55:12.791Z,4.57
2022-08-28T16:57:42.956Z,3.95
2022-08-28T17:00:14.018Z,4.30
2022-08-28T17:02:42.953Z,4.18
2022-08-28T17:05:12.699Z,4.47
2022-08-28T17:07:41.709Z,3.90
2022-08-28T17:10:12.914Z,4.32
2022-08-28T17:12:43.312Z,4.07
2022-08-28T17:15:12.940Z,4.18
2022-08-28T17:17:42.092Z,4.22
2022-08-28T17:20:34.801Z,5.80
2022-08-28T17:23:03.245Z,4.70
2022-08-28T17:25:31.529Z,3.63
2022-08-28T17:28:02.489Z,3.72
2022-08-28T17:30:30.705Z,4.22
2022-08-28T17:32:58.782Z,3.58
2022-08-28T17:35:27.764Z,4.28
2022-08-28T17:37:55.853Z,4.18
2022-08-28T17:40:24.415Z,9.05
2022-08-28T17:42:53.919Z,5.57
2022-08-28T17:45:23.561Z,3.60
2022-08-28T17:47:53.646Z,3.50
2022-08-28T17:50:24.452Z,4.47
2022-08-28T17:52:53.289Z,4.68
2022-08-28T17:55:22.099Z,4.53
2022-08-28T17:57:50.741Z,5.88
2022-08-28T18:00:19.785Z,3.83
2022-08-28T18:02:51.690Z,3.85
2022-08-28T18:05:20.665Z,4.55
2022-08-28T18:07:48.941Z,5.18
2022-08-28T18:10:17.729Z,4.90
2022-08-28T18:12:46.336Z,6.72
2022-08-28T18:15:16.369Z,4.70
2022-08-28T18:17:48.471Z,4.38
2022-08-28T18:20:19.889Z,5.22
2022-08-28T18:22:49.639Z,3.63
2022-08-28T18:25:32.712Z,3.70
2022-08-28T18:28:00.983Z,6.03
2022-08-28T18:30:29.870Z,4.30
2022-08-28T18:32:59.188Z,4.57
2022-08-28T18:35:31.963Z,4.07
2022-08-28T18:38:01.587Z,5.80
2022-08-28T18:40:30.501Z,6.70
2022-08-28T18:42:59.687Z,5.35
2022-08-28T18:45:29.170Z,4.13
2022-08-28T18:47:57.319Z,4.03
2022-08-28T18:50:28.245Z,4.55
2022-08-28T18:53:00.302Z,6.70
2022-08-28T18:55:32.093Z,5.05
2022-08-28T18:58:03.018Z,4.50
2022-08-28T19:00:32.421Z,4.82
2022-08-28T19:03:01.062Z,5.38
2022-08-28T19:05:30.003Z,4.32
2022-08-28T19:08:00.566Z,5.55
2022-08-28T19:10:33.841Z,5.05
2022-08-28T19:13:03.753Z,6.10
2022-08-28T19:15:33.654Z,6.20
2022-08-28T19:18:02.644Z,5.47
2022-08-28T19:20:32.252Z,6.10
2022-08-28T19:23:02.072Z,6.15
2022-08-28T19:25:31.710Z,5.30
2022-08-28T19:28:01.656Z,5.85
2022-08-28T19:30:34.305Z,7.75
2022-08-28T19:33:05.222Z,6.57
2022-08-28T19:35:34.916Z,5.53
2022-08-28T19:38:04.350Z,5.95
2022-08-28T19:40:33.807Z,5.47
2022-08-28T19:43:02.565Z,7.22
2022-08-28T19:45:34.111Z,5.68
2022-08-28T19:48:03.556Z,4.90
2022-08-28T19:50:31.838Z,6.32
2022-08-28T19:53:00.358Z,6.35
2022-08-28T19:55:31.279Z,6.30
2022-08-28T19:58:00.750Z,5.18
2022-08-28T20:00:29.597Z,5.95
2022-08-28T20:02:58.652Z,6.63
2022-08-28T20:05:26.752Z,5.82
2022-08-28T20:07:55.162Z,7.00
2022-08-28T20:10:23.509Z,5.40
2022-08-28T20:12:53.603Z,5.32
2022-08-28T20:15:23.824Z,5.93
2022-08-28T20:17:52.790Z,5.28
2022-08-28T20:20:27.988Z,6.45
2022-08-28T20:22:57.904Z,5.05
2022-08-28T20:25:28.181Z,5.82
2022-08-28T20:28:01.513Z,5.68
2022-08-28T20:30:31.194Z,6.25
2022-08-28T20:33:01.719Z,4.82
2022-08-28T20:35:30.437Z,7.80
2022-08-28T20:37:58.880Z,6.80
2022-08-28T20:40:28.370Z,7.57
2022-08-28T20:43:01.162Z,5.80
2022-08-28T20:45:30.107Z,7.55
2022-08-28T20:47:58.895Z,7.80
2022-08-28T20:50:27.042Z,5.68
2022-08-28T20:52:55.574Z,5.63
2022-08-28T20:55:23.644Z,5.28
2022-08-28T20:57:52.454Z,5.88
2022-08-28T21:00:22.896Z,5.10
2022-08-28T21:02:51.728Z,12.18
2022-08-28T21:05:20.358Z,5.95
2022-08-28T21:07:48.514Z,6.20
2022-08-28T21:10:16.927Z,5.40
2022-08-28T21:12:45.949Z,5.63
2022-08-28T21:15:15.176Z,5.97
2022-08-28T21:17:45.116Z,5.40
2022-08-28T21:20:16.743Z,5.88
2022-08-28T21:22:46.043Z,7.55
2022-08-28T21:25:15.356Z,5.30
2022-08-28T21:27:45.294Z,8.75
2022-08-28T21:30:18.207Z,5.78
2022-08-28T21:32:51.231Z,8.52
2022-08-28T21:35:21.482Z,5.43
2022-08-28T21:37:51.005Z,5.75
2022-08-28T21:40:20.843Z,5.70
2022-08-28T21:42:48.988Z,6.05
2022-08-28T21:45:17.839Z,5.82
2022-08-28T21:47:47.718Z,5.20
2022-08-28T21:50:16.669Z,6.63
2022-08-28T21:52:46.016Z,5.70
2022-08-28T21:55:17.425Z,11.00
2022-08-28T21:57:46.396Z,5.95
2022-08-28T22:00:20.852Z,5.65
2022-08-28T22:02:51.735Z,6.10
2022-08-28T22:05:20.771Z,7.38
2022-08-28T22:07:49.317Z,5.28
2022-08-28T22:10:18.137Z,5.60
2022-08-28T22:12:46.299Z,6.63
2022-08-28T22:15:15.197Z,7.85
2022-08-28T22:17:43.683Z,6.65
2022-08-28T22:20:13.955Z,4.40
2022-08-28T22:22:59.828Z,4.75
2022-08-28T22:25:27.910Z,4.75
2022-08-28T22:27:56.629Z,4.70
2022-08-28T22:30:25.134Z,4.80
2022-08-28T22:32:53.801Z,4.82
2022-08-28T22:35:24.154Z,4.50
2022-08-28T22:37:52.733Z,7.00
2022-08-28T22:40:21.663Z,5.68
2022-08-28T22:42:51.437Z,5.97
2022-08-28T22:45:20.402Z,5.28
2022-08-28T22:47:50.299Z,5.75
2022-08-28T22:50:20.036Z,5.10
2022-08-28T22:52:50.960Z,5.38
2022-08-28T22:55:22.048Z,5.47
2022-08-28T22:57:51.030Z,8.43
2022-08-28T23:00:24.933Z,6.28
2022-08-28T23:02:55.661Z,5.50
2022-08-28T23:05:25.761Z,5.10
2022-08-28T23:07:56.475Z,5.20
2022-08-28T23:10:42.094Z,4.90
2022-08-28T23:13:14.383Z,6.57
2022-08-28T23:15:44.532Z,5.90
2022-08-28T23:18:12.904Z,5.50
2022-08-28T23:20:42.588Z,5.10
2022-08-28T23:23:12.175Z,4.88
2022-08-28T23:25:40.853Z,5.53
2022-08-28T23:28:09.116Z,5.90
2022-08-28T23:30:39.208Z,5.03
2022-08-28T23:33:08.450Z,5.55
2022-08-28T23:35:37.095Z,5.22
2022-08-28T23:38:05.777Z,5.30
2022-08-28T23:40:37.713Z,5.43
2022-08-28T23:43:06.229Z,6.63
2022-08-28T23:45:35.006Z,4.25
2022-08-28T23:48:03.758Z,6.60
2022-08-28T23:50:34.093Z,5.95
2022-08-28T23:53:03.310Z,5.68
2022-08-28T23:55:33.364Z,6.07
2022-08-28T23:58:02.950Z,6.45
